Time;durP1;ratioP1;P1;durP2;ratioP2;P2;SDS_P1;SDS_P2;PMS_P1;PMS_P2;Temp;Humidity;BMP_temperature;BMP_pressure;BME280_temperature;BME280_humidity;BME280_pressure;Samples;Min_cycle;Max_cycle;Signal;HPM_P1;HPM_P2
2023/12/31 00:00:53;;;;;;;5.13;4.23;;;7.30;99.90;;;;;;5112960;28;20397;-68
2023/12/31 00:03:18;;;;;;;5.17;4.23;;;7.20;99.90;;;;;;5112853;28;20575;-69
2023/12/31 00:05:44;;;;;;;6.10;5.57;;;7.20;99.90;;;;;;5112745;28;20167;-69
2023/12/31 00:08:11;;;;;;;4.70;4.03;;;7.10;99.90;;;;;;5112720;28;20242;-69
2023/12/31 00:10:39;;;;;;;5.40;4.47;;;7.10;99.90;;;;;;5113077;28;20176;-69
2023/12/31 00:13:04;;;;;;;6.90;4.47;;;7.20;99.90;;;;;;5112996;28;20474;-69
2023/12/31 00:15:30;;;;;;;4.40;3.90;;;7.30;99.90;;;;;;5113306;28;20889;-68
2023/12/31 00:17:56;;;;;;;5.00;4.50;;;7.20;99.90;;;;;;5116367;28;20194;-68
2023/12/31 00:20:21;;;;;;;5.47;4.00;;;7.10;99.90;;;;;;5117246;28;20524;-68
2023/12/31 00:22:47;;;;;;;4.77;4.00;;;7.00;99.90;;;;;;5116511;28;20689;-68
2023/12/31 00:25:13;;;;;;;4.60;3.87;;;7.00;99.90;;;;;;5116482;28;20510;-69
2023/12/31 00:27:38;;;;;;;5.57;4.60;;;6.90;99.90;;;;;;5115998;28;20170;-69
2023/12/31 00:30:05;;;;;;;4.23;3.83;;;6.80;99.90;;;;;;5116083;28;20501;-69
2023/12/31 00:32:30;;;;;;;5.20;4.00;;;6.80;99.90;;;;;;5116245;28;20175;-69
2023/12/31 00:34:56;;;;;;;4.47;4.07;;;6.70;99.90;;;;;;5116537;28;20765;-69
2023/12/31 00:37:22;;;;;;;4.23;3.77;;;6.70;99.90;;;;;;5116489;28;20236;-69
2023/12/31 00:39:47;;;;;;;4.83;4.27;;;6.70;99.90;;;;;;5115512;28;20698;-69
2023/12/31 00:42:13;;;;;;;5.60;4.60;;;6.70;99.90;;;;;;5109277;28;20172;-69
2023/12/31 00:44:38;;;;;;;4.87;4.30;;;6.70;99.90;;;;;;5096153;28;20167;-69
2023/12/31 00:47:04;;;;;;;5.07;4.57;;;6.60;99.90;;;;;;5095552;28;20285;-68
2023/12/31 00:49:30;;;;;;;4.97;4.23;;;6.60;99.90;;;;;;5095782;28;20192;-69
2023/12/31 00:51:55;;;;;;;9.13;4.40;;;6.70;99.90;;;;;;5099554;28;20420;-69
2023/12/31 00:54:21;;;;;;;5.30;4.20;;;6.80;99.90;;;;;;5115984;28;20259;-70
2023/12/31 00:56:46;;;;;;;4.47;4.07;;;6.60;99.90;;;;;;5115683;28;20623;-69
2023/12/31 00:59:12;;;;;;;4.93;3.77;;;6.70;99.90;;;;;;5115453;28;20780;-69
2023/12/31 01:01:37;;;;;;;10.80;7.67;;;6.70;99.90;;;;;;5115549;28;20175;-69
2023/12/31 01:04:03;;;;;;;11.80;8.40;;;6.60;99.90;;;;;;5115824;28;20177;-68
2023/12/31 01:06:29;;;;;;;6.23;5.43;;;6.60;99.90;;;;;;5097215;28;20165;-68
2023/12/31 01:08:56;;;;;;;5.40;4.90;;;6.50;99.90;;;;;;5115430;28;20190;-69
2023/12/31 01:11:22;;;;;;;5.23;4.63;;;6.50;99.90;;;;;;5097632;28;20250;-69
2023/12/31 01:13:48;;;;;;;4.50;4.10;;;6.60;99.90;;;;;;5113026;28;21059;-68
2023/12/31 01:16:13;;;;;;;5.73;4.47;;;6.50;99.90;;;;;;5115816;28;20167;-69
2023/12/31 01:18:39;;;;;;;6.00;4.40;;;6.50;99.90;;;;;;5115516;28;20191;-68
2023/12/31 01:21:04;;;;;;;5.10;4.13;;;6.50;99.90;;;;;;5115397;28;20160;-68
2023/12/31 01:23:31;;;;;;;4.43;3.87;;;6.50;99.90;;;;;;5115275;28;20400;-69
2023/12/31 01:25:57;;;;;;;6.03;5.00;;;6.50;99.90;;;;;;5116055;28;20646;-69
2023/12/31 01:28:22;;;;;;;5.03;4.23;;;6.50;99.90;;;;;;5113907;28;20419;-68
2023/12/31 01:30:48;;;;;;;5.10;4.20;;;6.40;99.90;;;;;;5115068;28;20681;-68
2023/12/31 01:33:13;;;;;;;4.73;4.33;;;6.40;99.90;;;;;;5107703;28;20193;-69
2023/12/31 01:35:39;;;;;;;5.53;4.40;;;6.40;99.90;;;;;;5115197;28;20193;-68
2023/12/31 01:38:04;;;;;;;5.07;4.53;;;6.40;99.90;;;;;;5113439;28;20187;-68
2023/12/31 01:40:30;;;;;;;5.00;4.47;;;6.30;99.90;;;;;;5114542;28;20173;-68
2023/12/31 01:42:55;;;;;;;6.37;3.97;;;6.20;99.90;;;;;;5114746;28;20236;-69
2023/12/31 01:45:21;;;;;;;6.20;4.27;;;6.30;99.90;;;;;;5113459;28;20581;-69
2023/12/31 01:47:46;;;;;;;5.27;4.73;;;6.30;99.90;;;;;;5114598;28;20185;-68
2023/12/31 01:50:14;;;;;;;4.83;4.30;;;6.30;99.90;;;;;;5114555;28;20168;-68
2023/12/31 01:52:40;;;;;;;6.90;4.83;;;6.20;99.90;;;;;;5114548;28;20161;-69
2023/12/31 01:55:07;;;;;;;6.30;5.70;;;6.10;99.90;;;;;;5114544;28;20415;-69
2023/12/31 01:57:35;;;;;;;5.40;4.53;;;6.10;99.90;;;;;;5114605;28;20395;-68
2023/12/31 02:00:03;;;;;;;5.30;4.80;;;6.10;99.90;;;;;;5114495;28;20411;-69
2023/12/31 02:02:30;;;;;;;5.97;5.47;;;6.00;99.90;;;;;;5114498;28;20399;-68
2023/12/31 02:04:56;;;;;;;5.43;4.87;;;6.00;99.90;;;;;;5114629;28;20924;-68
2023/12/31 02:07:22;;;;;;;4.83;4.23;;;6.10;99.90;;;;;;5114236;28;20443;-68
2023/12/31 02:09:48;;;;;;;5.50;4.90;;;6.00;99.90;;;;;;5114537;28;20411;-68
2023/12/31 02:12:14;;;;;;;4.10;3.70;;;6.00;99.90;;;;;;5114226;28;20594;-68
2023/12/31 02:14:40;;;;;;;5.33;4.53;;;6.10;99.90;;;;;;5096598;28;20443;-68
2023/12/31 02:17:05;;;;;;;6.00;4.77;;;6.00;99.90;;;;;;5114170;28;20407;-68
2023/12/31 02:19:31;;;;;;;6.27;5.67;;;5.90;99.90;;;;;;5114010;28;20196;-69
2023/12/31 02:21:58;;;;;;;5.47;4.57;;;5.90;99.90;;;;;;5095729;28;20188;-68
2023/12/31 02:24:31;;;;;;;5.50;4.87;;;5.90;99.90;;;;;;5114259;28;20587;-68
2023/12/31 02:26:57;;;;;;;5.10;4.50;;;5.90;99.90;;;;;;5113667;28;20416;-69
2023/12/31 02:29:22;;;;;;;5.07;4.50;;;5.90;99.90;;;;;;5112523;28;20439;-69
2023/12/31 02:31:48;;;;;;;4.40;4.00;;;5.90;99.90;;;;;;5113725;28;20198;-68
2023/12/31 02:34:14;;;;;;;5.77;4.57;;;5.90;99.90;;;;;;5095542;28;20189;-69
2023/12/31 02:36:39;;;;;;;5.70;4.50;;;6.00;99.90;;;;;;5113914;28;20193;-69
2023/12/31 02:39:05;;;;;;;4.13;3.50;;;6.10;99.90;;;;;;5113393;28;20192;-69
2023/12/31 02:41:32;;;;;;;5.33;4.20;;;6.10;99.90;;;;;;5113705;28;20165;-68
2023/12/31 02:43:57;;;;;;;6.03;5.17;;;6.20;99.90;;;;;;5113824;28;20278;-69
2023/12/31 02:46:23;;;;;;;4.23;3.80;;;6.10;99.90;;;;;;5113298;28;20432;-69
2023/12/31 02:48:48;;;;;;;5.40;4.87;;;6.10;99.90;;;;;;5113302;28;20273;-69
2023/12/31 02:51:14;;;;;;;5.30;4.70;;;6.30;99.90;;;;;;5113617;28;20260;-69
2023/12/31 02:53:40;;;;;;;7.20;5.10;;;6.50;99.90;;;;;;5096632;28;20188;-69
2023/12/31 02:56:05;;;;;;;4.87;4.47;;;6.60;99.90;;;;;;5091934;28;20162;-69
2023/12/31 02:58:31;;;;;;;5.67;4.93;;;6.70;99.90;;;;;;5102271;22;20462;-68
2023/12/31 03:00:59;;;;;;;5.10;4.60;;;6.90;99.90;;;;;;5072096;28;20661;-70
2023/12/31 03:03:24;;;;;;;4.87;4.40;;;6.90;99.90;;;;;;5072396;28;20176;-69
2023/12/31 03:05:50;;;;;;;4.33;3.93;;;7.00;99.90;;;;;;5073008;28;20425;-70
2023/12/31 03:08:15;;;;;;;11.30;4.33;;;7.10;99.90;;;;;;5072229;28;20721;-70
2023/12/31 03:10:41;;;;;;;4.33;3.93;;;7.00;99.90;;;;;;5072252;28;20172;-70
2023/12/31 03:13:06;;;;;;;5.03;4.40;;;7.00;99.90;;;;;;5071992;28;20689;-70
2023/12/31 03:15:32;;;;;;;4.43;4.03;;;7.10;99.90;;;;;;5072586;28;20195;-70
2023/12/31 03:17:58;;;;;;;3.87;3.57;;;7.10;99.90;;;;;;5072651;28;20263;-71
2023/12/31 03:20:23;;;;;;;4.83;4.03;;;7.30;99.90;;;;;;5072560;28;20170;-70
2023/12/31 03:22:49;;;;;;;3.40;3.10;;;7.40;99.90;;;;;;5072114;28;20195;-70
2023/12/31 03:25:15;;;;;;;4.03;3.47;;;7.50;99.90;;;;;;5072804;28;20164;-70
2023/12/31 03:27:40;;;;;;;4.63;3.60;;;7.50;99.90;;;;;;5072245;28;20157;-70
2023/12/31 03:30:08;;;;;;;5.13;3.80;;;7.70;99.90;;;;;;5072008;28;20208;-70
2023/12/31 03:32:33;;;;;;;4.67;4.20;;;7.70;99.90;;;;;;5071738;28;20628;-70
2023/12/31 03:34:59;;;;;;;4.97;3.90;;;7.70;99.90;;;;;;5071822;28;20531;-69
2023/12/31 03:37:24;;;;;;;4.17;3.77;;;7.80;99.90;;;;;;5071921;28;20252;-68
2023/12/31 03:39:51;;;;;;;2.70;2.50;;;7.70;99.90;;;;;;5071850;28;20185;-68
2023/12/31 03:42:17;;;;;;;2.50;2.30;;;7.90;99.90;;;;;;5072039;28;20534;-69
2023/12/31 03:44:43;;;;;;;2.10;1.90;;;8.10;99.90;;;;;;5071826;28;20832;-69
2023/12/31 03:47:09;;;;;;;2.10;1.90;;;8.30;99.90;;;;;;5071959;28;20405;-68
2023/12/31 03:49:34;;;;;;;2.20;1.73;;;8.40;99.90;;;;;;5072742;28;20186;-68
2023/12/31 03:52:00;;;;;;;4.43;2.50;;;8.60;99.90;;;;;;5073707;28;20257;-68
2023/12/31 03:54:25;;;;;;;2.97;2.17;;;8.60;99.90;;;;;;5075617;28;20284;-70
2023/12/31 03:56:51;;;;;;;2.47;1.93;;;8.70;99.90;;;;;;5076016;28;20177;-70
2023/12/31 03:59:16;;;;;;;1.90;1.70;;;8.80;99.90;;;;;;5076086;28;20289;-70
2023/12/31 04:01:45;;;;;;;3.10;2.57;;;8.90;99.90;;;;;;5075898;28;20172;-68
2023/12/31 04:04:14;;;;;;;2.40;2.20;;;8.90;99.90;;;;;;5075467;28;20262;-69
2023/12/31 04:06:42;;;;;;;2.60;2.40;;;8.80;99.90;;;;;;5075360;28;20409;-68
2023/12/31 04:09:09;;;;;;;3.10;2.70;;;8.70;99.90;;;;;;5075955;28;20956;-69
2023/12/31 04:11:34;;;;;;;3.17;2.70;;;8.60;99.90;;;;;;5075654;28;20447;-69
2023/12/31 04:14:00;;;;;;;6.00;3.10;;;8.50;99.90;;;;;;5075073;28;20963;-69
2023/12/31 04:16:26;;;;;;;2.50;2.30;;;8.60;99.90;;;;;;5075234;28;20517;-69
2023/12/31 04:18:51;;;;;;;2.13;1.90;;;8.50;99.90;;;;;;5075234;28;20188;-69
2023/12/31 04:21:17;;;;;;;2.53;2.33;;;8.50;99.90;;;;;;5073868;28;20224;-69
2023/12/31 04:23:42;;;;;;;2.60;2.30;;;8.40;99.90;;;;;;5075018;28;20178;-69
2023/12/31 04:26:08;;;;;;;2.30;2.10;;;8.40;99.90;;;;;;5075261;28;20174;-69
2023/12/31 04:28:33;;;;;;;3.17;2.27;;;8.40;99.90;;;;;;5056922;28;20200;-69
2023/12/31 04:31:02;;;;;;;2.60;2.40;;;8.40;99.90;;;;;;5075329;28;20185;-69
2023/12/31 04:33:28;;;;;;;3.30;2.27;;;8.50;99.90;;;;;;5074835;28;20268;-70
2023/12/31 04:35:53;;;;;;;2.50;2.30;;;8.40;99.90;;;;;;5075307;28;20422;-70
2023/12/31 04:38:19;;;;;;;2.50;1.73;;;8.50;99.90;;;;;;5074810;28;20267;-70
2023/12/31 04:40:44;;;;;;;2.50;2.20;;;8.40;99.90;;;;;;5074443;28;20170;-70
2023/12/31 04:43:10;;;;;;;3.60;2.30;;;8.50;99.90;;;;;;5074831;28;20170;-70
2023/12/31 04:45:36;;;;;;;2.00;1.80;;;8.50;99.90;;;;;;5073699;28;20173;-69
2023/12/31 04:48:01;;;;;;;2.50;2.30;;;8.60;99.90;;;;;;5074917;28;20184;-69
2023/12/31 04:50:27;;;;;;;2.57;2.20;;;8.60;99.90;;;;;;5074693;28;20557;-70
2023/12/31 04:52:52;;;;;;;1.93;1.80;;;8.60;99.90;;;;;;5074630;28;20277;-69
2023/12/31 04:55:18;;;;;;;2.13;1.93;;;8.70;99.90;;;;;;5074685;28;20222;-69
2023/12/31 04:57:43;;;;;;;2.63;2.20;;;8.60;99.90;;;;;;5075074;28;20173;-70
2023/12/31 05:00:09;;;;;;;2.67;1.90;;;8.60;99.90;;;;;;5074548;28;20201;-69
2023/12/31 05:02:35;;;;;;;1.77;1.63;;;8.70;99.90;;;;;;5074280;28;20577;-69
2023/12/31 05:05:02;;;;;;;2.43;1.70;;;8.60;99.90;;;;;;5074982;28;20435;-70
2023/12/31 05:07:28;;;;;;;4.87;2.37;;;8.70;99.90;;;;;;5073399;28;20642;-70
2023/12/31 05:09:53;;;;;;;2.80;2.60;;;8.60;99.90;;;;;;5074339;28;20481;-69
2023/12/31 05:12:19;;;;;;;3.27;2.97;;;8.40;99.90;;;;;;5074548;28;20178;-70
2023/12/31 05:14:44;;;;;;;3.43;3.07;;;8.30;99.90;;;;;;5074542;28;20193;-69
2023/12/31 05:17:10;;;;;;;2.90;2.57;;;8.10;99.90;;;;;;5074370;28;20179;-69
2023/12/31 05:19:35;;;;;;;3.50;3.00;;;8.00;99.90;;;;;;5074103;28;20185;-69
2023/12/31 05:22:01;;;;;;;4.80;3.77;;;7.80;99.90;;;;;;5074072;28;20371;-69
2023/12/31 05:24:27;;;;;;;3.47;3.13;;;7.70;99.90;;;;;;5073946;28;20204;-68
2023/12/31 05:26:52;;;;;;;3.60;3.30;;;7.80;99.90;;;;;;5074042;28;20207;-69
2023/12/31 05:29:18;;;;;;;5.00;3.03;;;7.90;99.90;;;;;;5074058;28;20196;-69
2023/12/31 05:31:43;;;;;;;4.70;3.03;;;7.80;99.90;;;;;;5074002;28;20540;-69
2023/12/31 05:34:09;;;;;;;2.77;2.57;;;7.70;99.90;;;;;;5073466;28;20198;-70
2023/12/31 05:36:34;;;;;;;3.30;3.00;;;7.60;99.90;;;;;;5073603;28;20223;-69
2023/12/31 05:39:00;;;;;;;4.97;3.87;;;7.50;99.90;;;;;;5073785;28;20250;-69
2023/12/31 05:41:25;;;;;;;3.40;3.10;;;7.50;99.90;;;;;;5073585;28;20206;-70
2023/12/31 05:43:51;;;;;;;4.57;3.40;;;7.60;99.90;;;;;;5073363;28;20650;-70
2023/12/31 05:46:17;;;;;;;4.10;3.33;;;7.80;99.90;;;;;;5073674;28;20196;-70
2023/12/31 05:48:42;;;;;;;3.73;3.37;;;7.80;99.90;;;;;;5073467;28;20194;-70
2023/12/31 05:51:08;;;;;;;3.50;2.80;;;7.90;99.90;;;;;;5073366;28;20177;-70
2023/12/31 05:53:33;;;;;;;3.83;3.07;;;7.90;99.90;;;;;;5073301;28;20291;-70
2023/12/31 05:56:00;;;;;;;3.43;2.93;;;7.80;99.90;;;;;;5073522;28;20179;-69
2023/12/31 05:58:25;;;;;;;3.20;2.90;;;7.70;99.90;;;;;;5073295;28;20703;-70
2023/12/31 06:00:51;;;;;;;3.20;2.80;;;7.60;99.90;;;;;;5073624;28;20489;-69
2023/12/31 06:03:17;;;;;;;4.03;3.50;;;7.60;99.90;;;;;;5073291;28;20190;-70
2023/12/31 06:05:43;;;;;;;3.23;2.93;;;7.70;99.90;;;;;;5073136;28;20185;-69
2023/12/31 06:08:09;;;;;;;3.30;2.87;;;7.70;99.90;;;;;;5073085;28;20193;-69
2023/12/31 06:10:34;;;;;;;4.90;2.97;;;7.80;99.90;;;;;;5073100;28;20902;-70
2023/12/31 06:13:00;;;;;;;3.83;3.43;;;7.90;99.90;;;;;;5073206;28;20540;-69
2023/12/31 06:15:25;;;;;;;4.17;3.67;;;7.90;99.90;;;;;;5072443;28;20248;-69
2023/12/31 06:17:51;;;;;;;3.60;3.30;;;7.90;99.90;;;;;;5073073;28;20175;-69
2023/12/31 06:20:16;;;;;;;3.33;3.03;;;8.00;99.90;;;;;;5072896;28;20604;-70
2023/12/31 06:22:42;;;;;;;3.40;3.10;;;8.00;99.90;;;;;;5072884;28;20165;-69
2023/12/31 06:25:08;;;;;;;3.60;3.30;;;8.10;99.90;;;;;;5072338;28;20181;-70
2023/12/31 06:27:36;;;;;;;3.50;3.20;;;8.10;99.90;;;;;;5072631;28;20287;-69
2023/12/31 06:30:01;;;;;;;3.47;3.17;;;7.80;99.90;;;;;;5072499;28;20428;-70
2023/12/31 06:32:27;;;;;;;3.27;3.07;;;7.70;99.90;;;;;;5072110;28;20937;-69
2023/12/31 06:34:53;;;;;;;5.53;3.27;;;7.80;99.90;;;;;;5072585;28;20196;-69
2023/12/31 06:37:18;;;;;;;3.83;3.43;;;7.90;99.90;;;;;;5072704;28;20166;-70
2023/12/31 06:39:44;;;;;;;4.60;3.57;;;7.60;99.90;;;;;;5072751;28;20196;-69
2023/12/31 06:42:10;;;;;;;3.73;3.10;;;7.60;99.90;;;;;;5072869;28;20249;-69
2023/12/31 06:44:35;;;;;;;3.40;2.97;;;7.80;99.90;;;;;;5072857;28;20274;-69
2023/12/31 06:47:01;;;;;;;3.50;3.20;;;7.90;99.90;;;;;;5073211;28;20177;-69
2023/12/31 06:49:26;;;;;;;3.90;3.50;;;7.70;99.90;;;;;;5071993;28;20686;-69
2023/12/31 06:51:52;;;;;;;3.20;2.90;;;7.60;99.90;;;;;;5072514;28;20545;-69
2023/12/31 06:54:17;;;;;;;4.00;3.60;;;7.60;99.90;;;;;;5073083;28;20223;-68
2023/12/31 06:56:43;;;;;;;3.77;3.37;;;7.80;99.90;;;;;;5072604;28;20536;-69
2023/12/31 06:59:08;;;;;;;5.43;3.20;;;8.00;99.90;;;;;;5072356;28;20230;-70
2023/12/31 07:01:34;;;;;;;3.00;2.80;;;8.10;99.90;;;;;;5072346;28;20236;-69
2023/12/31 07:04:00;;;;;;;3.50;2.93;;;8.10;99.90;;;;;;5072764;28;20321;-69
2023/12/31 07:06:26;;;;;;;5.40;2.43;;;8.10;99.90;;;;;;5072685;28;20207;-69
2023/12/31 07:08:51;;;;;;;3.33;3.03;;;7.90;99.90;;;;;;5072753;28;20431;-68
2023/12/31 07:11:17;;;;;;;2.80;2.60;;;8.10;99.90;;;;;;5072509;28;20173;-68
2023/12/31 07:13:43;;;;;;;3.60;2.70;;;8.20;99.90;;;;;;5072219;28;20201;-70
2023/12/31 07:16:09;;;;;;;3.47;2.83;;;8.10;99.90;;;;;;5072279;28;20599;-70
2023/12/31 07:18:36;;;;;;;2.27;2.07;;;8.10;99.90;;;;;;5072052;28;20420;-69
2023/12/31 07:21:02;;;;;;;2.07;1.87;;;8.00;99.90;;;;;;5072083;28;20165;-70
2023/12/31 07:23:27;;;;;;;2.20;2.00;;;8.20;99.90;;;;;;5072190;28;20493;-69
2023/12/31 07:25:53;;;;;;;1.67;1.57;;;8.30;99.90;;;;;;5074290;28;20168;-69
2023/12/31 07:28:19;;;;;;;2.10;1.70;;;8.50;99.90;;;;;;5076097;28;20602;-70
2023/12/31 07:30:44;;;;;;;2.23;2.00;;;8.70;99.90;;;;;;5076396;28;20169;-70
2023/12/31 07:33:10;;;;;;;2.10;1.90;;;8.80;99.90;;;;;;5075879;28;20555;-70
2023/12/31 07:35:36;;;;;;;2.47;2.27;;;9.00;99.90;;;;;;5076339;28;20163;-69
2023/12/31 07:38:08;;;;;;;3.03;2.10;;;9.20;99.90;;;;;;5076078;28;20413;-70
2023/12/31 07:40:34;;;;;;;2.53;2.13;;;9.10;99.90;;;;;;5076136;28;20166;-70
2023/12/31 07:43:00;;;;;;;2.43;2.20;;;9.10;99.90;;;;;;5075972;28;20464;-70
2023/12/31 07:45:25;;;;;;;2.57;2.10;;;9.20;99.90;;;;;;5076153;28;20410;-70
2023/12/31 07:47:53;;;;;;;2.47;1.93;;;9.20;99.90;;;;;;5075841;28;20175;-69
2023/12/31 07:50:19;;;;;;;2.80;2.00;;;9.20;99.90;;;;;;5076119;28;20232;-70
2023/12/31 07:52:44;;;;;;;2.40;2.00;;;9.10;99.90;;;;;;5075908;28;20407;-70
2023/12/31 07:55:10;;;;;;;3.17;1.73;;;9.20;99.90;;;;;;5075906;28;20450;-70
2023/12/31 07:57:36;;;;;;;3.40;3.03;;;9.20;99.90;;;;;;5058029;28;20168;-69
2023/12/31 08:00:05;;;;;;;2.53;1.57;;;9.10;99.90;;;;;;5075769;28;20196;-70
2023/12/31 08:02:31;;;;;;;2.10;1.90;;;9.10;99.90;;;;;;5075493;28;20393;-70
2023/12/31 08:04:56;;;;;;;3.27;2.23;;;9.10;99.90;;;;;;5075691;28;20407;-70
2023/12/31 08:07:22;;;;;;;2.27;1.83;;;9.10;99.90;;;;;;5075961;28;20208;-70
2023/12/31 08:09:47;;;;;;;1.93;1.83;;;9.20;99.90;;;;;;5075728;28;20681;-69
2023/12/31 08:12:13;;;;;;;2.80;2.20;;;9.20;99.90;;;;;;5075733;28;20526;-70
2023/12/31 08:14:39;;;;;;;2.27;1.87;;;9.20;99.90;;;;;;5075662;28;20183;-70
2023/12/31 08:17:04;;;;;;;2.60;2.00;;;9.30;99.90;;;;;;5075805;28;20180;-70
2023/12/31 08:19:30;;;;;;;2.70;2.27;;;9.20;99.90;;;;;;5075140;28;20188;-68
2023/12/31 08:21:55;;;;;;;2.20;1.60;;;9.20;99.90;;;;;;5075152;28;20224;-70
2023/12/31 08:24:21;;;;;;;2.53;1.60;;;9.30;99.90;;;;;;5075325;28;20180;-69
2023/12/31 08:26:47;;;;;;;2.13;1.93;;;9.40;99.90;;;;;;5075066;28;20170;-70
2023/12/31 08:29:12;;;;;;;5.50;1.80;;;9.50;99.90;;;;;;5074677;28;20191;-70
2023/12/31 08:31:38;;;;;;;2.47;2.13;;;9.50;99.90;;;;;;5075129;28;20174;-68
2023/12/31 08:34:04;;;;;;;2.10;1.80;;;9.50;99.90;;;;;;5075292;28;20192;-69
2023/12/31 08:36:29;;;;;;;1.90;1.73;;;9.50;99.90;;;;;;5074754;28;20481;-69
2023/12/31 08:38:55;;;;;;;2.20;1.90;;;9.60;99.90;;;;;;5074857;28;20226;-69
2023/12/31 08:41:21;;;;;;;2.30;1.90;;;9.60;99.90;;;;;;5074796;28;20186;-69
2023/12/31 08:43:48;;;;;;;1.97;1.83;;;9.50;99.90;;;;;;5073939;28;20766;-70
2023/12/31 08:46:14;;;;;;;2.40;2.07;;;9.40;99.90;;;;;;5075081;28;20169;-69
2023/12/31 08:48:39;;;;;;;2.10;1.90;;;9.50;99.90;;;;;;5074825;28;20495;-69
2023/12/31 08:51:05;;;;;;;3.27;2.43;;;9.40;99.90;;;;;;5073952;28;20421;-69
2023/12/31 08:53:31;;;;;;;3.43;2.47;;;9.40;99.90;;;;;;5054792;28;20198;-69
2023/12/31 08:55:57;;;;;;;2.60;2.17;;;9.40;99.90;;;;;;5053326;28;20176;-69
2023/12/31 08:58:23;;;;;;;2.40;2.00;;;9.40;99.90;;;;;;5069769;22;20461;31
2023/12/31 09:00:48;;;;;;;1.90;1.70;;;9.40;99.90;;;;;;5034008;28;20440;-70
2023/12/31 09:03:14;;;;;;;3.30;2.20;;;9.40;99.90;;;;;;5035023;28;20717;-69
2023/12/31 09:05:39;;;;;;;2.10;1.90;;;9.40;99.90;;;;;;5035511;28;20168;-69
2023/12/31 09:08:05;;;;;;;3.53;2.43;;;9.50;99.90;;;;;;5035143;28;20639;-69
2023/12/31 09:10:31;;;;;;;1.77;1.63;;;9.50;99.90;;;;;;5052646;28;20267;-69
2023/12/31 09:12:56;;;;;;;2.33;2.10;;;9.60;99.90;;;;;;5041143;28;20783;-68
2023/12/31 09:15:22;;;;;;;4.67;2.40;;;9.60;99.90;;;;;;5055015;28;20171;-69
2023/12/31 09:17:48;;;;;;;2.23;1.90;;;9.60;99.90;;;;;;5054628;28;20248;-69
2023/12/31 09:20:14;;;;;;;2.10;1.90;;;9.70;99.90;;;;;;5054574;28;20461;-69
2023/12/31 09:22:39;;;;;;;3.20;2.30;;;9.80;99.90;;;;;;5041543;28;20197;-69
2023/12/31 09:25:06;;;;;;;1.97;1.83;;;9.80;99.90;;;;;;5034484;28;20170;-69
2023/12/31 09:27:32;;;;;;;2.40;2.20;;;9.60;99.90;;;;;;5034553;28;20639;-69
2023/12/31 09:29:58;;;;;;;2.07;1.87;;;9.70;99.90;;;;;;5034458;28;20421;-69
2023/12/31 09:32:23;;;;;;;2.30;2.10;;;9.70;99.90;;;;;;5045126;28;20495;-69
2023/12/31 09:34:49;;;;;;;2.27;2.00;;;9.70;99.90;;;;;;5054261;28;20562;-69
2023/12/31 09:37:18;;;;;;;2.43;1.90;;;9.80;99.90;;;;;;5054601;28;20175;-69
2023/12/31 09:39:45;;;;;;;2.90;2.60;;;9.90;99.90;;;;;;5054126;28;20969;-69
2023/12/31 09:42:13;;;;;;;3.20;2.20;;;9.80;99.90;;;;;;5045415;28;20935;-69
2023/12/31 09:44:40;;;;;;;2.80;2.50;;;9.90;99.90;;;;;;5050517;28;20411;-69
2023/12/31 09:47:08;;;;;;;3.07;2.50;;;10.10;99.90;;;;;;5054169;28;20409;-69
2023/12/31 09:49:35;;;;;;;3.53;2.70;;;10.10;99.90;;;;;;5052986;28;20425;-69
2023/12/31 09:52:05;;;;;;;2.37;2.17;;;10.20;99.90;;;;;;5047019;28;20493;-69
2023/12/31 09:54:32;;;;;;;3.40;2.53;;;10.30;99.90;;;;;;5034948;28;20454;-69
2023/12/31 09:56:58;;;;;;;3.40;2.70;;;10.60;99.90;;;;;;5034299;28;20405;-69
2023/12/31 09:59:26;;;;;;;2.60;2.40;;;10.70;99.90;;;;;;5033939;28;20855;-69
2023/12/31 10:01:56;;;;;;;3.20;2.87;;;10.50;99.90;;;;;;5039909;28;20449;-69
2023/12/31 10:04:22;;;;;;;2.90;2.40;;;10.40;99.90;;;;;;5054125;28;20406;-69
2023/12/31 10:06:49;;;;;;;3.87;3.03;;;10.50;99.90;;;;;;5053715;28;20408;-69
2023/12/31 10:09:28;;;;;;;3.57;2.67;;;10.60;99.90;;;;;;5091357;28;20579;-69
2023/12/31 10:11:57;;;;;;;3.90;3.00;;;10.90;99.90;;;;;;5090561;28;20387;-69
2023/12/31 10:14:25;;;;;;;3.40;2.77;;;11.10;99.90;;;;;;5090491;28;20773;-70
2023/12/31 10:16:50;;;;;;;2.83;2.40;;;11.30;99.90;;;;;;5090425;28;20798;-69
2023/12/31 10:19:16;;;;;;;3.27;2.97;;;11.30;99.90;;;;;;5090254;28;20420;-68
2023/12/31 10:21:43;;;;;;;3.50;3.20;;;11.10;99.90;;;;;;5090281;28;20175;-68
2023/12/31 10:24:10;;;;;;;3.43;2.63;;;11.10;99.90;;;;;;5090208;28;20693;-69
2023/12/31 10:26:36;;;;;;;3.30;2.70;;;11.20;99.90;;;;;;5090223;28;20482;-69
2023/12/31 10:29:04;;;;;;;2.67;2.43;;;11.20;99.90;;;;;;5088654;28;20489;-69
2023/12/31 10:31:30;;;;;;;2.93;2.43;;;11.20;99.90;;;;;;5090304;28;20404;-68
2023/12/31 10:33:55;;;;;;;2.63;1.80;;;11.20;99.90;;;;;;5089714;28;20479;-69
2023/12/31 10:36:25;;;;;;;2.50;2.30;;;11.30;99.90;;;;;;5090228;28;20850;-69
2023/12/31 10:38:51;;;;;;;2.97;2.70;;;11.30;99.90;;;;;;5090366;28;20750;-69
2023/12/31 10:41:25;;;;;;;3.83;2.80;;;11.10;99.90;;;;;;5089788;28;20404;-68
2023/12/31 10:43:54;;;;;;;2.63;2.40;;;11.10;99.90;;;;;;5090244;28;20419;-69
2023/12/31 10:46:21;;;;;;;3.47;2.90;;;11.20;99.90;;;;;;5081363;28;20906;-69
2023/12/31 10:49:03;;;;;;;2.47;2.20;;;11.40;99.90;;;;;;5069441;28;20854;-69
2023/12/31 10:51:28;;;;;;;3.00;2.50;;;11.60;99.90;;;;;;5071877;28;20928;-70
2023/12/31 10:53:58;;;;;;;3.27;2.63;;;11.60;99.90;;;;;;5090208;28;20443;-69
2023/12/31 10:56:25;;;;;;;3.30;2.50;;;11.60;99.90;;;;;;5088456;28;20171;-70
2023/12/31 10:58:54;;;;;;;4.77;3.80;;;11.70;99.90;;;;;;5089934;28;20429;-70
2023/12/31 11:01:24;;;;;;;4.73;4.33;;;11.50;99.90;;;;;;5089821;28;20414;-70
2023/12/31 11:03:52;;;;;;;4.70;4.10;;;11.00;99.90;;;;;;5090188;28;20403;-70
2023/12/31 11:06:19;;;;;;;5.10;4.60;;;10.90;99.90;;;;;;5090604;28;20408;-69
2023/12/31 11:08:46;;;;;;;3.90;3.50;;;10.80;99.90;;;;;;5090571;28;20471;-70
2023/12/31 11:11:13;;;;;;;3.83;3.40;;;11.10;99.90;;;;;;5090711;28;20425;-70
2023/12/31 11:13:42;;;;;;;4.33;3.93;;;11.60;99.90;;;;;;5089853;28;20401;-70
2023/12/31 11:16:32;;;;;;;3.57;3.27;;;11.90;99.90;;;;;;5089975;28;20411;-69
2023/12/31 11:19:30;;;;;;;4.57;4.17;;;12.20;99.90;;;;;;5085891;28;20899;-68
2023/12/31 11:22:25;;;;;;;4.03;3.50;;;12.20;99.90;;;;;;5075671;28;20474;-69
2023/12/31 11:24:53;;;;;;;3.80;3.50;;;12.30;99.90;;;;;;5038899;28;20488;-69
2023/12/31 11:27:19;;;;;;;3.77;3.37;;;12.40;99.90;;;;;;5075508;28;20436;-69
2023/12/31 11:29:48;;;;;;;3.40;2.90;;;11.90;99.90;;;;;;5075729;28;20421;-69
2023/12/31 11:32:17;;;;;;;5.17;4.40;;;11.80;99.90;;;;;;5075310;28;20407;-69
2023/12/31 11:34:42;;;;;;;6.60;4.47;;;11.70;99.90;;;;;;5075745;28;20842;-69
2023/12/31 11:37:08;;;;;;;5.17;4.77;;;11.30;99.90;;;;;;5075105;28;20466;-69
2023/12/31 11:39:34;;;;;;;6.97;4.73;;;11.30;99.90;;;;;;5075545;28;20194;-69
2023/12/31 11:42:10;;;;;;;4.50;4.10;;;11.40;99.90;;;;;;5075208;28;20404;-69
2023/12/31 11:44:37;;;;;;;5.67;4.10;;;11.50;99.90;;;;;;5075324;28;20188;-69
2023/12/31 11:47:03;;;;;;;4.70;4.20;;;11.60;99.90;;;;;;5073796;28;20763;-69
2023/12/31 11:49:30;;;;;;;5.57;4.60;;;11.50;99.90;;;;;;5075355;28;20417;-69
2023/12/31 11:52:01;;;;;;;3.83;3.43;;;11.30;99.90;;;;;;5075305;28;20487;-69
2023/12/31 11:54:33;;;;;;;3.80;2.50;;;10.90;99.90;;;;;;5075018;28;20381;-69
2023/12/31 11:56:59;;;;;;;3.83;2.80;;;10.80;99.90;;;;;;5075351;28;20400;-69
2023/12/31 11:59:25;;;;;;;3.33;2.80;;;10.70;99.90;;;;;;5074955;28;20457;-70
2023/12/31 12:01:52;;;;;;;2.10;1.90;;;10.40;99.90;;;;;;5074851;28;20415;-69
2023/12/31 12:04:18;;;;;;;2.50;1.90;;;10.40;99.90;;;;;;5074997;28;20400;-70
2023/12/31 12:06:44;;;;;;;2.60;1.90;;;10.20;99.90;;;;;;5074863;28;20527;-69
2023/12/31 12:09:11;;;;;;;2.70;2.37;;;10.10;99.90;;;;;;5075077;28;20201;-70
2023/12/31 12:11:38;;;;;;;2.80;2.00;;;10.10;99.90;;;;;;5074628;28;20438;-69
2023/12/31 12:14:04;;;;;;;2.50;1.83;;;10.00;99.90;;;;;;5074604;28;20481;-69
2023/12/31 12:16:30;;;;;;;3.17;2.50;;;9.90;99.90;;;;;;5074846;28;20432;-69
2023/12/31 12:18:59;;;;;;;2.53;1.90;;;9.90;99.90;;;;;;5074832;28;20432;-69
2023/12/31 12:21:26;;;;;;;2.63;1.57;;;9.70;99.90;;;;;;5074651;28;20630;-70
2023/12/31 12:23:53;;;;;;;2.07;1.40;;;9.60;99.90;;;;;;5074459;28;20502;-70
2023/12/31 12:26:19;;;;;;;2.07;1.53;;;9.70;99.90;;;;;;5074411;28;20424;-70
2023/12/31 12:28:47;;;;;;;2.33;1.53;;;9.70;99.90;;;;;;5073895;28;20457;-69
2023/12/31 12:31:17;;;;;;;3.30;1.70;;;9.70;99.90;;;;;;5073176;28;20908;-69
2023/12/31 12:33:44;;;;;;;1.67;1.50;;;9.80;99.90;;;;;;5074500;28;20447;-69
2023/12/31 12:36:10;;;;;;;1.43;1.07;;;9.90;99.90;;;;;;5074233;28;20414;-69
2023/12/31 12:38:39;;;;;;;1.57;1.33;;;9.90;99.90;;;;;;5074249;28;20407;-69
2023/12/31 12:41:04;;;;;;;1.43;1.30;;;9.80;99.90;;;;;;5058845;28;20936;-70
2023/12/31 12:43:33;;;;;;;1.93;1.27;;;9.80;99.90;;;;;;5071223;28;20414;-69
2023/12/31 12:46:11;;;;;;;1.60;1.10;;;9.90;99.90;;;;;;5074463;28;20181;-70
2023/12/31 12:48:48;;;;;;;1.47;1.10;;;10.10;99.90;;;;;;5074156;28;20429;-69
2023/12/31 12:51:14;;;;;;;2.70;1.87;;;10.20;99.90;;;;;;5074535;28;20394;-70